Terminal Aerodrome Forecast
Issued by NWS

Home | Current Version | Previous Version | Text Only | Print | Product List | Glossary On
Versions: 1 2 3 4 5 6 7 8 9 10 11 12 13 14 15 16 17 18
000
FTUS43 KAPX 301740 AAB
TAFAPN
TAF AMD
KAPN 301740Z 3018/0118 08013G19KT 4SM -RA BR BKN006 OVC010
     FM010000 04008KT 3SM BR VCSH OVC003
     FM010400 07008KT 3SM BR VCSH OVC003
     FM010600 07007KT 2SM SHRA BR OVC003
     FM011200 10011G19KT 2SM -SHRA BR OVC003
     FM011500 13008KT 3/4SM BR OVC003
     FM011700 17010G19KT 5SM BR BKN025=

USA.gov is the U.S. government's official web portal to all federal, state and local government web resources and services.